Time;durP1;ratioP1;P1;durP2;ratioP2;P2;SDS_P1;SDS_P2;PMS_P1;PMS_P2;Temp;Humidity;BMP_temperature;BMP_pressure;BME280_temperature;BME280_humidity;BME280_pressure;Samples;Min_cycle;Max_cycle;Signal;HPM_P1;HPM_P2
2023/01/29 00:00:20;;;;;;;4.30;0.70;;;18.40;1.00;;;;;;5031340;28;20042;-39
2023/01/29 00:02:47;;;;;;;2.53;0.70;;;18.30;1.00;;;;;;5030960;28;20045;-40
2023/01/29 00:05:14;;;;;;;1.02;0.52;;;18.30;1.00;;;;;;5031266;28;20041;-39
2023/01/29 00:07:54;;;;;;;1.80;0.80;;;18.30;1.00;;;;;;5031282;28;20111;-39
2023/01/29 00:10:22;;;;;;;1.63;0.77;;;18.30;1.00;;;;;;5031233;28;20041;-40
2023/01/29 00:12:50;;;;;;;0.85;0.40;;;18.30;1.00;;;;;;5031055;28;20045;-41
2023/01/29 00:15:17;;;;;;;2.80;0.65;;;18.20;1.00;;;;;;5031115;28;20041;-41
2023/01/29 00:17:44;;;;;;;3.08;0.45;;;18.20;1.00;;;;;;5031610;28;20060;-40
2023/01/29 00:20:11;;;;;;;1.63;0.50;;;18.10;1.00;;;;;;5034664;28;20042;-39
2023/01/29 00:22:38;;;;;;;1.33;0.60;;;18.10;1.00;;;;;;5034442;28;20148;-39
2023/01/29 00:25:05;;;;;;;2.08;0.90;;;18.10;1.00;;;;;;5034710;28;20053;-40
2023/01/29 00:27:32;;;;;;;2.15;0.32;;;18.00;1.00;;;;;;5034728;28;20535;-40
2023/01/29 00:30:10;;;;;;;1.48;0.70;;;18.00;1.00;;;;;;5034622;28;20092;-40
2023/01/29 00:32:40;;;;;;;0.90;0.50;;;18.00;1.00;;;;;;5032971;28;20049;-39
2023/01/29 00:35:08;;;;;;;0.90;0.40;;;18.00;1.00;;;;;;5034386;28;20488;-40
2023/01/29 00:37:35;;;;;;;1.45;0.47;;;17.90;1.00;;;;;;5034550;28;20067;-40
2023/01/29 00:40:03;;;;;;;2.17;0.60;;;17.90;1.00;;;;;;5034536;28;20386;-40
2023/01/29 00:45:15;;;;;;;0.80;0.52;;;17.90;1.00;;;;;;5034115;28;20087;-41
2023/01/29 00:47:44;;;;;;;1.23;0.38;;;17.80;1.00;;;;;;5033014;28;20524;-40
2023/01/29 00:50:12;;;;;;;1.25;0.75;;;17.80;1.00;;;;;;5032860;28;20500;-40
2023/01/29 00:52:42;;;;;;;1.13;0.50;;;17.80;1.00;;;;;;5033996;28;20083;-40
2023/01/29 00:55:09;;;;;;;0.98;0.63;;;17.70;1.00;;;;;;5034046;28;20045;-40
2023/01/29 00:57:37;;;;;;;0.90;0.60;;;17.70;1.00;;;;;;5032806;28;20072;-40
2023/01/29 01:00:08;;;;;;;1.90;0.70;;;17.70;1.00;;;;;;5034100;28;20065;-40
2023/01/29 01:05:20;;;;;;;1.85;0.85;;;17.60;1.00;;;;;;5032660;28;20103;-40
2023/01/29 01:07:49;;;;;;;1.45;0.50;;;17.60;1.00;;;;;;5034106;28;20041;-38
2023/01/29 01:10:19;;;;;;;0.82;0.50;;;17.60;1.00;;;;;;5032427;28;20041;-40
2023/01/29 01:13:04;;;;;;;0.70;0.50;;;17.60;1.00;;;;;;5033670;28;20084;-40
2023/01/29 01:15:38;;;;;;;1.58;0.70;;;17.50;1.00;;;;;;5033610;28;20041;-40
2023/01/29 01:18:05;;;;;;;1.02;0.40;;;17.50;1.00;;;;;;5033864;28;20102;-40
2023/01/29 01:20:34;;;;;;;2.40;0.47;;;17.50;1.00;;;;;;5033606;28;20056;-39
2023/01/29 01:23:02;;;;;;;2.28;1.65;;;17.40;1.00;;;;;;5033345;28;20053;-41
2023/01/29 01:25:29;;;;;;;0.70;0.52;;;17.40;1.00;;;;;;5033514;28;20041;-41
2023/01/29 01:27:57;;;;;;;0.88;0.57;;;17.40;1.00;;;;;;5033655;28;20451;-40
2023/01/29 01:30:26;;;;;;;1.25;0.50;;;17.40;1.00;;;;;;5032288;28;20551;-39
2023/01/29 01:32:52;;;;;;;1.13;0.60;;;17.30;1.00;;;;;;5031898;28;20531;-39
2023/01/29 01:35:19;;;;;;;2.45;0.60;;;17.30;1.00;;;;;;5033247;28;20444;-40
2023/01/29 01:37:46;;;;;;;1.15;0.60;;;17.30;1.00;;;;;;5032187;28;20107;-39
2023/01/29 01:40:18;;;;;;;0.80;0.50;;;17.30;1.00;;;;;;5031897;28;20060;-39
2023/01/29 01:42:56;;;;;;;1.25;0.40;;;17.30;1.00;;;;;;5031787;28;20069;-40
2023/01/29 01:45:36;;;;;;;2.40;0.75;;;17.20;1.00;;;;;;5031845;28;20448;-40
2023/01/29 01:48:24;;;;;;;1.52;0.52;;;17.20;1.00;;;;;;5033267;28;20048;-39
2023/01/29 01:51:05;;;;;;;2.00;0.50;;;17.20;1.00;;;;;;5033050;28;20159;-39
2023/01/29 01:54:06;;;;;;;0.63;0.52;;;17.10;1.00;;;;;;5032878;28;20061;-40
2023/01/29 01:56:40;;;;;;;1.23;0.40;;;17.10;1.00;;;;;;5027509;28;20115;-40
2023/01/29 01:59:10;;;;;;;1.20;0.60;;;17.00;1.00;;;;;;5031757;28;20144;-40
2023/01/29 02:01:41;;;;;;;2.28;0.70;;;17.00;1.00;;;;;;5032913;28;20041;-39
2023/01/29 02:09:57;;;;;;;1.38;0.68;;;16.90;1.00;;;;;;5031432;28;20049;-39
2023/01/29 02:12:24;;;;;;;0.70;0.43;;;16.90;1.00;;;;;;5031350;28;20056;-40
2023/01/29 02:14:51;;;;;;;0.85;0.63;;;16.80;1.00;;;;;;5031181;28;20053;-40
2023/01/29 02:17:19;;;;;;;0.95;0.60;;;16.80;1.00;;;;;;5031225;28;20045;-40
2023/01/29 02:19:46;;;;;;;0.80;0.50;;;16.80;1.00;;;;;;5031365;28;20045;-39
2023/01/29 02:22:37;;;;;;;1.10;0.70;;;16.80;1.00;;;;;;5014754;28;20049;-39
2023/01/29 02:25:34;;;;;;;0.93;0.47;;;16.80;1.00;;;;;;5031209;28;20053;-39
2023/01/29 02:28:16;;;;;;;1.33;0.65;;;16.70;1.00;;;;;;5031272;28;20128;-39
2023/01/29 02:31:01;;;;;;;1.23;0.90;;;16.70;1.00;;;;;;5030955;28;20045;-39
2023/01/29 02:33:49;;;;;;;1.10;0.60;;;16.70;1.00;;;;;;5030742;28;20041;-39
2023/01/29 02:36:32;;;;;;;1.77;0.65;;;16.70;1.00;;;;;;5030972;28;20460;-40
2023/01/29 02:39:32;;;;;;;1.15;0.52;;;16.70;1.00;;;;;;5032313;28;20042;-39
2023/01/29 02:42:13;;;;;;;3.03;0.60;;;16.70;1.00;;;;;;5030559;28;20493;-46
2023/01/29 02:44:57;;;;;;;1.67;0.82;;;16.60;1.00;;;;;;5030598;28;20481;-38
2023/01/29 02:47:57;;;;;;;1.00;0.50;;;16.60;1.00;;;;;;5030803;28;20041;-40
2023/01/29 02:50:46;;;;;;;0.85;0.52;;;16.60;1.00;;;;;;5031879;28;20041;-40
2023/01/29 02:53:40;;;;;;;1.80;1.02;;;16.60;1.00;;;;;;5031874;28;20041;-39
2023/01/29 02:56:11;;;;;;;2.80;0.73;;;16.60;1.00;;;;;;5004792;28;20052;-40
2023/01/29 02:58:49;;;;;;;1.95;0.70;;;16.50;1.00;;;;;;5030526;28;20049;-40
2023/01/29 03:01:36;;;;;;;0.85;0.55;;;16.50;1.00;;;;;;5030631;28;20073;-39
2023/01/29 03:04:14;;;;;;;0.95;0.60;;;16.50;1.00;;;;;;5031777;28;20045;-39
2023/01/29 03:07:01;;;;;;;1.08;0.50;;;16.50;1.00;;;;;;5031765;28;20447;-39
2023/01/29 03:09:36;;;;;;;1.15;0.82;;;16.50;1.00;;;;;;5030576;28;20041;-40
2023/01/29 03:12:32;;;;;;;2.70;1.25;;;16.40;1.00;;;;;;5030546;28;20140;-39
2023/01/29 03:15:15;;;;;;;0.70;0.50;;;16.40;1.00;;;;;;5030352;28;20041;-40
2023/01/29 03:18:00;;;;;;;1.92;0.60;;;16.40;1.00;;;;;;5030585;28;20095;-38
2023/01/29 03:20:39;;;;;;;1.40;0.80;;;16.40;1.00;;;;;;5030483;28;20103;-39
2023/01/29 03:23:17;;;;;;;1.80;0.75;;;16.40;1.00;;;;;;5031456;28;20038;-39
2023/01/29 03:34:22;;;;;;;1.00;0.60;;;16.30;1.00;;;;;;5031330;28;20511;-39
2023/01/29 03:37:00;;;;;;;1.55;0.80;;;16.30;1.00;;;;;;5030358;28;20132;-39
2023/01/29 03:39:28;;;;;;;1.70;0.90;;;16.20;1.00;;;;;;5030389;28;20128;-40
2023/01/29 03:42:13;;;;;;;0.98;0.65;;;16.20;1.00;;;;;;5030247;28;20045;-39
2023/01/29 03:44:59;;;;;;;1.27;0.82;;;16.20;1.00;;;;;;5030061;28;20049;-39
2023/01/29 03:48:08;;;;;;;2.65;1.08;;;16.20;1.00;;;;;;5030265;28;20045;-40
2023/01/29 03:50:41;;;;;;;2.20;0.88;;;16.20;1.00;;;;;;5029919;28;20104;-40
2023/01/29 03:53:15;;;;;;;3.72;0.93;;;16.20;1.00;;;;;;5032222;28;20045;-39
2023/01/29 03:56:06;;;;;;;2.60;0.93;;;16.10;1.00;;;;;;5033885;28;20045;-38
2023/01/29 03:58:46;;;;;;;1.42;0.82;;;16.10;1.00;;;;;;5033888;28;20052;-39
2023/01/29 04:01:26;;;;;;;2.08;0.80;;;16.10;1.00;;;;;;5033910;28;20171;-39
2023/01/29 04:03:59;;;;;;;2.90;0.95;;;16.10;1.00;;;;;;5033724;28;20107;-39
2023/01/29 04:06:30;;;;;;;1.27;0.85;;;16.10;1.00;;;;;;5033761;28;20052;-39
2023/01/29 04:09:29;;;;;;;1.58;1.10;;;16.10;1.00;;;;;;5033762;28;20054;-39
2023/01/29 04:12:18;;;;;;;1.42;0.93;;;16.10;1.00;;;;;;5033664;28;20141;-41
2023/01/29 04:14:48;;;;;;;1.95;1.00;;;16.00;1.00;;;;;;5033585;28;20102;-39
2023/01/29 04:17:24;;;;;;;1.13;0.80;;;16.00;1.00;;;;;;5035162;22;20491;-40
2023/01/29 04:20:03;;;;;;;2.17;1.08;;;16.00;1.00;;;;;;5019549;28;20045;-39
2023/01/29 04:22:36;;;;;;;2.33;1.02;;;16.00;1.00;;;;;;5016816;28;20128;-40
2023/01/29 04:25:14;;;;;;;1.58;0.98;;;16.00;1.00;;;;;;5016945;28;20562;-39
2023/01/29 04:28:05;;;;;;;2.08;1.35;;;16.00;1.00;;;;;;5016940;28;20047;-39
2023/01/29 04:30:55;;;;;;;1.77;1.08;;;15.90;1.00;;;;;;5016762;28;20122;-39
2023/01/29 04:33:41;;;;;;;2.42;1.45;;;15.90;1.00;;;;;;5034397;28;20044;-40
2023/01/29 04:36:35;;;;;;;1.90;1.10;;;15.90;1.00;;;;;;5016655;28;20038;-40
2023/01/29 04:39:21;;;;;;;3.75;1.40;;;15.90;1.00;;;;;;5016886;28;20037;-39
2023/01/29 04:42:11;;;;;;;2.22;1.50;;;15.90;1.00;;;;;;5034423;28;20436;-40
2023/01/29 04:45:10;;;;;;;2.15;1.00;;;15.90;1.00;;;;;;5034222;28;20489;-40
2023/01/29 04:47:47;;;;;;;2.40;1.10;;;15.80;1.00;;;;;;4998532;28;20107;-40
2023/01/29 04:50:21;;;;;;;1.58;1.20;;;15.80;1.00;;;;;;5034226;28;20137;-39
2023/01/29 04:53:06;;;;;;;3.45;1.45;;;15.80;1.00;;;;;;5033919;28;20041;-40
2023/01/29 04:56:00;;;;;;;2.45;1.23;;;15.80;1.00;;;;;;5016511;28;20062;-40
2023/01/29 04:58:42;;;;;;;2.20;0.90;;;15.80;1.00;;;;;;5034137;28;20038;-40
2023/01/29 05:01:14;;;;;;;2.45;1.33;;;15.80;1.00;;;;;;5034036;28;20045;-40
2023/01/29 05:03:45;;;;;;;2.45;1.15;;;15.80;1.00;;;;;;5033516;28;20511;-40
2023/01/29 05:06:13;;;;;;;3.45;1.23;;;15.70;1.00;;;;;;5015775;28;20452;-40
2023/01/29 05:08:41;;;;;;;2.45;1.20;;;15.70;1.00;;;;;;5032188;28;20531;-40
2023/01/29 05:11:08;;;;;;;1.88;1.33;;;15.70;1.00;;;;;;5033504;28;20539;-40
2023/01/29 05:13:38;;;;;;;3.38;1.10;;;15.70;1.00;;;;;;5033412;28;20072;-40
2023/01/29 05:16:13;;;;;;;3.97;1.60;;;15.70;1.00;;;;;;5033608;28;20046;-40
2023/01/29 05:18:40;;;;;;;2.78;1.50;;;15.70;1.00;;;;;;5033657;28;20409;-40
2023/01/29 05:21:08;;;;;;;2.22;1.42;;;15.70;1.00;;;;;;5033347;28;20120;-40
2023/01/29 05:23:35;;;;;;;2.20;1.02;;;15.70;1.00;;;;;;5032064;28;20053;-40
2023/01/29 05:26:03;;;;;;;3.97;1.65;;;15.70;1.00;;;;;;5033552;28;20124;-40
2023/01/29 05:28:30;;;;;;;1.65;1.17;;;15.60;1.00;;;;;;5033515;28;20066;-40
2023/01/29 05:30:57;;;;;;;2.38;1.30;;;15.60;1.00;;;;;;5033305;28;20488;-40
2023/01/29 05:33:29;;;;;;;3.70;1.58;;;15.60;1.00;;;;;;5033087;28;20444;-40
2023/01/29 05:35:58;;;;;;;2.55;1.63;;;15.60;1.00;;;;;;5033333;28;20053;-40
2023/01/29 05:38:25;;;;;;;3.13;1.10;;;15.60;1.00;;;;;;5033133;28;20103;-41
2023/01/29 05:40:52;;;;;;;2.03;1.13;;;15.60;1.00;;;;;;5033275;28;20045;-40
2023/01/29 05:43:22;;;;;;;3.03;1.45;;;15.60;1.00;;;;;;5033052;28;20057;-41
2023/01/29 05:46:00;;;;;;;2.90;1.42;;;15.60;1.00;;;;;;5033091;28;20049;-40
2023/01/29 05:48:28;;;;;;;3.08;1.30;;;15.60;1.00;;;;;;5033215;28;20049;-40
2023/01/29 05:51:04;;;;;;;3.20;1.60;;;15.60;1.00;;;;;;5033020;28;20522;-40
2023/01/29 05:53:31;;;;;;;1.77;1.13;;;15.50;1.00;;;;;;5032867;28;20072;-40
2023/01/29 05:56:03;;;;;;;2.47;1.20;;;15.50;1.00;;;;;;5032989;28;20408;-40
2023/01/29 05:58:31;;;;;;;2.13;1.48;;;15.50;1.00;;;;;;5032892;28;20037;-40
2023/01/29 06:01:06;;;;;;;5.63;1.65;;;15.50;1.00;;;;;;5032901;28;20496;-40
2023/01/29 06:03:32;;;;;;;3.42;1.15;;;15.50;1.00;;;;;;5032659;28;20455;-40
2023/01/29 06:06:01;;;;;;;2.85;1.45;;;15.50;1.00;;;;;;5032796;28;20132;-40
2023/01/29 06:08:27;;;;;;;2.63;0.98;;;15.50;1.00;;;;;;5032770;28;20519;-40
2023/01/29 06:10:54;;;;;;;1.92;1.13;;;15.50;1.00;;;;;;5032543;28;20045;-39
2023/01/29 06:13:21;;;;;;;2.50;1.35;;;15.40;1.00;;;;;;5032351;28;20397;-40
2023/01/29 06:15:49;;;;;;;2.67;1.40;;;15.40;1.00;;;;;;5031693;28;20042;-40
2023/01/29 06:18:16;;;;;;;6.03;1.65;;;15.40;1.00;;;;;;5032575;28;20048;-40
2023/01/29 06:20:42;;;;;;;4.20;1.15;;;15.40;1.00;;;;;;5032604;28;20121;-40
2023/01/29 06:23:09;;;;;;;2.95;1.42;;;15.40;1.00;;;;;;5032177;28;20493;-40
2023/01/29 06:25:36;;;;;;;1.70;1.30;;;15.40;1.00;;;;;;5032309;28;20505;-41
2023/01/29 06:28:03;;;;;;;3.15;1.58;;;15.40;1.00;;;;;;5032583;28;20069;-40
2023/01/29 06:30:30;;;;;;;1.85;1.10;;;15.40;1.00;;;;;;5032393;28;20038;-40
2023/01/29 06:33:00;;;;;;;2.65;0.98;;;15.40;1.00;;;;;;5031985;28;20049;-40
2023/01/29 06:35:27;;;;;;;2.95;1.30;;;15.40;1.00;;;;;;5032321;28;20042;-40
2023/01/29 06:37:55;;;;;;;2.45;1.40;;;15.40;1.00;;;;;;5032246;28;20124;-40
2023/01/29 06:40:22;;;;;;;2.70;1.15;;;15.30;1.00;;;;;;5032073;28;20050;-40
2023/01/29 06:42:48;;;;;;;2.10;1.30;;;15.30;1.00;;;;;;5031974;28;20073;-40
2023/01/29 06:45:15;;;;;;;1.85;1.15;;;15.30;1.00;;;;;;5032148;28;20560;-39
2023/01/29 06:47:42;;;;;;;1.75;1.17;;;15.30;1.00;;;;;;5032032;28;20072;-40
2023/01/29 06:50:09;;;;;;;1.65;1.17;;;15.30;1.00;;;;;;5032048;28;20121;-40
2023/01/29 06:52:36;;;;;;;1.30;0.93;;;15.30;1.00;;;;;;5031924;28;20120;-40
2023/01/29 06:55:03;;;;;;;2.10;1.10;;;15.30;1.00;;;;;;5032013;28;20049;-40
2023/01/29 06:57:30;;;;;;;2.33;1.13;;;15.30;1.00;;;;;;5031840;28;20412;-40
2023/01/29 06:59:56;;;;;;;3.08;1.25;;;15.30;1.00;;;;;;5032039;28;20120;-40
2023/01/29 07:02:23;;;;;;;2.38;1.08;;;15.30;1.00;;;;;;5031853;28;20497;-39
2023/01/29 07:04:50;;;;;;;2.85;0.90;;;15.20;1.00;;;;;;5031773;28;20408;-40
2023/01/29 07:07:17;;;;;;;1.73;1.10;;;15.20;1.00;;;;;;5014221;28;20068;-40
2023/01/29 07:09:44;;;;;;;1.88;1.15;;;15.20;1.00;;;;;;5031796;28;20049;-40
2023/01/29 07:12:10;;;;;;;1.58;1.00;;;15.20;1.00;;;;;;5031722;28;20052;-40
2023/01/29 07:14:37;;;;;;;3.30;1.40;;;15.20;1.00;;;;;;5031554;28;20041;-40
2023/01/29 07:17:04;;;;;;;1.95;1.05;;;15.20;1.00;;;;;;5031678;28;20532;-41
2023/01/29 07:19:31;;;;;;;2.55;1.10;;;15.20;1.00;;;;;;5031771;28;20440;-40
2023/01/29 07:22:01;;;;;;;2.80;1.05;;;15.20;1.00;;;;;;5013786;28;20046;-40
2023/01/29 07:24:27;;;;;;;5.55;1.35;;;15.20;1.00;;;;;;5031414;28;20065;-40
2023/01/29 07:26:54;;;;;;;2.30;1.13;;;15.20;1.00;;;;;;5031568;28;20049;-40
2023/01/29 07:29:21;;;;;;;1.55;0.95;;;15.20;1.00;;;;;;5034803;28;20087;-40
2023/01/29 07:31:48;;;;;;;3.25;1.42;;;15.20;1.00;;;;;;5035543;28;20049;-40
2023/01/29 07:34:15;;;;;;;1.42;1.00;;;15.10;1.00;;;;;;5035330;28;20486;-40
2023/01/29 07:36:41;;;;;;;1.15;0.77;;;15.10;1.00;;;;;;5035498;28;20048;-40
2023/01/29 07:39:08;;;;;;;2.63;1.10;;;15.10;1.00;;;;;;5035608;28;20048;-40
2023/01/29 07:41:35;;;;;;;2.95;1.15;;;15.10;1.00;;;;;;5035344;28;20157;-40
2023/01/29 07:44:09;;;;;;;2.42;0.90;;;15.10;1.00;;;;;;5035112;28;20045;-40
2023/01/29 07:46:36;;;;;;;2.17;1.13;;;15.10;1.00;;;;;;5035294;28;20054;-40
2023/01/29 07:49:03;;;;;;;2.35;1.50;;;15.10;1.00;;;;;;5034460;28;20095;-40
2023/01/29 07:51:29;;;;;;;4.70;1.70;;;15.10;1.00;;;;;;5033482;28;20568;-40
2023/01/29 07:53:56;;;;;;;2.60;1.13;;;15.10;1.00;;;;;;5034444;28;20037;-40
2023/01/29 07:56:23;;;;;;;3.42;1.30;;;15.10;1.00;;;;;;5030844;28;20416;-40
2023/01/29 07:58:50;;;;;;;1.20;1.00;;;15.10;1.00;;;;;;5030369;28;20041;-40
2023/01/29 08:01:16;;;;;;;1.90;1.27;;;15.10;1.00;;;;;;5032634;28;20042;-40
2023/01/29 08:03:43;;;;;;;2.70;1.33;;;15.00;1.00;;;;;;5034678;28;20046;-40
2023/01/29 08:06:10;;;;;;;3.38;0.80;;;15.00;1.00;;;;;;5034754;28;20077;-40
2023/01/29 08:08:37;;;;;;;3.97;1.42;;;15.00;1.00;;;;;;5033271;28;20408;-40
2023/01/29 08:11:04;;;;;;;2.47;0.95;;;15.00;1.00;;;;;;5034065;28;20500;-40
2023/01/29 08:13:31;;;;;;;2.30;1.10;;;15.00;1.00;;;;;;5034155;28;20044;-40
2023/01/29 08:16:02;;;;;;;2.28;1.20;;;15.00;1.00;;;;;;5016174;28;20044;-40
2023/01/29 08:18:30;;;;;;;2.95;1.33;;;15.00;1.00;;;;;;5034877;28;20410;-40
2023/01/29 08:21:00;;;;;;;2.17;0.93;;;15.00;1.00;;;;;;5034657;28;20045;-40
2023/01/29 08:23:27;;;;;;;3.40;1.33;;;15.00;1.00;;;;;;5034451;28;20084;-40
2023/01/29 08:25:54;;;;;;;4.20;1.40;;;14.90;1.00;;;;;;5018084;28;20052;-40
2023/01/29 08:28:21;;;;;;;3.15;1.00;;;14.90;1.00;;;;;;5027888;28;20128;-40
2023/01/29 08:30:48;;;;;;;2.40;1.13;;;14.90;1.00;;;;;;5043044;28;20041;-39
2023/01/29 08:33:15;;;;;;;3.97;1.40;;;14.90;1.00;;;;;;5034298;28;20041;-40
2023/01/29 08:35:49;;;;;;;2.28;1.02;;;14.90;1.00;;;;;;5051075;28;20052;-40
2023/01/29 08:38:17;;;;;;;1.55;0.90;;;14.90;1.00;;;;;;5054208;28;20045;-39
2023/01/29 08:40:43;;;;;;;2.20;0.75;;;14.90;1.00;;;;;;5053907;28;20393;-40
2023/01/29 08:43:12;;;;;;;1.30;0.85;;;14.90;1.00;;;;;;5028363;28;20133;-39
2023/01/29 08:45:43;;;;;;;2.65;1.08;;;14.90;1.00;;;;;;5034153;28;20042;-40
2023/01/29 08:48:10;;;;;;;2.42;0.95;;;14.90;1.00;;;;;;5034335;28;20041;-39
2023/01/29 08:50:37;;;;;;;4.10;1.10;;;14.90;1.00;;;;;;5034046;28;20121;-40
2023/01/29 08:53:06;;;;;;;3.13;1.48;;;14.90;1.00;;;;;;5033521;28;20067;-40
2023/01/29 08:55:40;;;;;;;2.47;1.30;;;14.90;1.00;;;;;;5015493;28;20041;-40
2023/01/29 08:58:10;;;;;;;2.05;0.90;;;14.90;1.00;;;;;;5034044;28;20124;-40
2023/01/29 09:00:37;;;;;;;4.28;0.60;;;14.90;1.00;;;;;;5044692;28;20037;-40
2023/01/29 09:03:06;;;;;;;3.75;1.10;;;14.90;1.00;;;;;;5040441;28;20042;-40
2023/01/29 09:05:34;;;;;;;4.18;1.67;;;14.90;1.00;;;;;;5033908;28;20052;-40
2023/01/29 09:08:01;;;;;;;3.70;1.10;;;14.90;1.00;;;;;;5033870;28;20069;-40
2023/01/29 09:10:28;;;;;;;2.78;1.27;;;14.90;1.00;;;;;;5033525;28;20057;-39
2023/01/29 09:12:54;;;;;;;4.70;1.17;;;14.90;1.00;;;;;;5033727;28;20456;-40
2023/01/29 09:15:22;;;;;;;1.98;0.90;;;14.90;1.00;;;;;;5033740;28;20452;-40
2023/01/29 09:17:48;;;;;;;3.28;1.15;;;14.90;1.00;;;;;;5033639;28;20386;-41
2023/01/29 09:20:16;;;;;;;1.13;0.80;;;14.90;1.00;;;;;;5033468;28;20061;-40
2023/01/29 09:22:43;;;;;;;3.95;1.02;;;14.90;1.00;;;;;;5033282;28;20072;-40
2023/01/29 09:25:10;;;;;;;2.85;1.00;;;14.90;1.00;;;;;;5033470;28;20050;-40
2023/01/29 09:27:37;;;;;;;0.95;0.73;;;14.90;1.00;;;;;;5033404;28;20103;-40
2023/01/29 09:30:05;;;;;;;2.70;1.25;;;14.90;1.00;;;;;;5033417;28;20416;-39
2023/01/29 09:32:33;;;;;;;1.67;1.00;;;14.90;1.00;;;;;;5033250;28;20112;-39
2023/01/29 09:35:21;;;;;;;5.50;1.48;;;14.90;1.00;;;;;;5048453;28;20041;-40
2023/01/29 09:37:48;;;;;;;9.10;1.70;;;14.90;1.00;;;;;;5053295;28;20072;-39
2023/01/29 09:40:29;;;;;;;6.80;1.00;;;14.90;1.00;;;;;;5053170;28;20048;-39
2023/01/29 09:43:21;;;;;;;17.70;1.98;;;14.90;1.00;;;;;;5052914;28;20076;-39
2023/01/29 09:46:22;;;;;;;29.55;2.92;;;14.90;1.00;;;;;;5052545;28;20520;-39
2023/01/29 09:48:59;;;;;;;10.48;1.50;;;14.90;1.00;;;;;;5053051;28;20040;-40
2023/01/29 09:51:34;;;;;;;13.10;1.30;;;14.80;1.00;;;;;;5051884;28;20159;-39
2023/01/29 09:54:06;;;;;;;3.13;1.33;;;14.80;1.00;;;;;;5052599;28;20136;-39
2023/01/29 09:56:34;;;;;;;4.85;1.58;;;14.80;1.00;;;;;;5035027;28;20112;-40
2023/01/29 09:59:00;;;;;;;7.82;2.33;;;14.80;1.00;;;;;;5032960;28;20049;-40
2023/01/29 10:01:33;;;;;;;9.70;2.40;;;14.80;1.00;;;;;;5032709;28;20107;-40
2023/01/29 10:04:12;;;;;;;7.00;2.05;;;14.80;1.00;;;;;;5032656;28;20558;-40
2023/01/29 10:07:02;;;;;;;4.30;0.82;;;14.80;1.00;;;;;;5032567;28;20045;-40
2023/01/29 10:09:34;;;;;;;2.78;1.08;;;14.80;1.00;;;;;;5032664;28;20531;-40
2023/01/29 10:12:29;;;;;;;10.27;1.87;;;14.80;1.00;;;;;;5032590;28;20121;-39
2023/01/29 10:15:32;;;;;;;4.53;1.10;;;14.80;1.00;;;;;;5015396;28;20527;-40
2023/01/29 10:18:02;;;;;;;5.78;1.58;;;14.80;1.00;;;;;;5039864;22;20075;-38
2023/01/29 10:20:57;;;;;;;20.80;2.45;;;14.80;1.00;;;;;;5032181;28;20045;-39
2023/01/29 10:23:32;;;;;;;15.30;1.55;;;14.80;1.00;;;;;;5020557;28;20073;-39
2023/01/29 10:26:00;;;;;;;15.75;1.70;;;14.80;1.00;;;;;;5029024;28;20041;-39
2023/01/29 10:28:32;;;;;;;2.97;1.13;;;14.80;1.00;;;;;;5032277;28;20046;-40
2023/01/29 10:31:19;;;;;;;12.88;1.33;;;14.80;1.00;;;;;;4998413;28;20116;-39
2023/01/29 10:33:52;;;;;;;12.80;1.52;;;14.80;1.00;;;;;;5031134;28;20046;-39
2023/01/29 10:36:41;;;;;;;6.60;1.42;;;14.80;1.00;;;;;;5024944;28;20072;-39
2023/01/29 10:39:19;;;;;;;4.00;1.13;;;14.80;1.00;;;;;;5031655;28;20501;-39
2023/01/29 10:41:51;;;;;;;5.97;1.13;;;14.80;1.00;;;;;;5032359;28;20473;-39
2023/01/29 10:44:26;;;;;;;5.53;1.50;;;14.80;1.00;;;;;;5031966;28;20079;-39
2023/01/29 10:47:22;;;;;;;4.32;1.50;;;14.80;1.00;;;;;;5032019;28;20041;-39
2023/01/29 10:49:58;;;;;;;2.58;1.42;;;14.80;1.00;;;;;;5031982;28;20049;-38
2023/01/29 10:53:02;;;;;;;3.97;1.35;;;14.70;1.00;;;;;;5031799;28;20038;-39
2023/01/29 10:55:48;;;;;;;;;;;14.70;1.00;;;;;;5032420;28;20056;-39
2023/01/29 10:58:29;;;;;;;4.68;1.13;;;14.70;1.00;;;;;;5031893;28;20385;-39
2023/01/29 11:00:57;;;;;;;6.10;1.48;;;14.70;1.00;;;;;;5031959;28;20038;-39
2023/01/29 11:03:27;;;;;;;4.47;1.50;;;14.70;1.00;;;;;;5031393;28;20052;-39
2023/01/29 11:06:06;;;;;;;6.93;1.33;;;14.70;1.00;;;;;;5031892;28;20052;-39
2023/01/29 11:08:42;;;;;;;5.30;1.58;;;14.70;1.00;;;;;;5030558;28;20045;-39
2023/01/29 11:11:17;;;;;;;2.50;1.10;;;14.70;1.00;;;;;;5031854;28;20453;-39
2023/01/29 11:14:01;;;;;;;5.28;1.52;;;14.70;1.00;;;;;;5031543;28;20041;-39
2023/01/29 11:16:29;;;;;;;3.13;1.45;;;14.70;1.00;;;;;;5031544;28;20042;-39
2023/01/29 11:18:58;;;;;;;3.65;1.70;;;14.70;1.00;;;;;;5031730;28;20041;-39
2023/01/29 11:21:27;;;;;;;4.47;1.65;;;14.70;1.00;;;;;;5031705;28;20046;-39
2023/01/29 11:24:14;;;;;;;3.80;1.85;;;14.70;1.00;;;;;;5030672;28;20103;-38
2023/01/29 11:26:43;;;;;;;3.10;1.58;;;14.70;1.00;;;;;;5026603;28;20373;-38
2023/01/29 11:29:40;;;;;;;4.47;1.60;;;14.70;1.00;;;;;;5029049;28;20069;-39
2023/01/29 11:32:11;;;;;;;2.97;1.52;;;14.70;1.00;;;;;;5028766;28;20037;-39
2023/01/29 11:35:18;;;;;;;7.60;2.22;;;14.70;1.00;;;;;;5029150;28;20121;-39
2023/01/29 11:37:45;;;;;;;4.70;1.77;;;14.60;1.00;;;;;;5030477;28;20103;-39
2023/01/29 11:40:18;;;;;;;6.07;1.48;;;14.60;1.00;;;;;;5028370;28;20030;-39
2023/01/29 11:42:46;;;;;;;6.72;1.63;;;14.60;1.00;;;;;;5027960;28;20112;-39
2023/01/29 11:45:19;;;;;;;3.97;1.65;;;14.60;1.00;;;;;;5031318;28;20500;-39
2023/01/29 11:47:53;;;;;;;4.28;1.52;;;14.70;1.00;;;;;;5031436;28;20072;-40
2023/01/29 11:50:23;;;;;;;6.05;1.98;;;14.70;1.00;;;;;;5027640;28;20076;-40
2023/01/29 11:52:50;;;;;;;5.72;1.83;;;14.70;1.00;;;;;;5031062;28;20564;-40
2023/01/29 11:55:21;;;;;;;4.57;1.60;;;14.70;1.00;;;;;;5031246;28;20038;-40
2023/01/29 11:58:02;;;;;;;4.15;1.60;;;14.70;1.00;;;;;;5029262;28;20092;-39
2023/01/29 12:00:34;;;;;;;4.07;1.48;;;14.70;1.00;;;;;;5011438;28;20090;-40
2023/01/29 12:03:06;;;;;;;3.92;1.23;;;14.70;1.00;;;;;;5011364;28;20413;-40
2023/01/29 12:05:33;;;;;;;3.95;1.48;;;14.70;1.00;;;;;;5012710;28;20042;-39
2023/01/29 12:08:01;;;;;;;8.13;1.88;;;14.70;1.00;;;;;;5036781;28;20080;-41
2023/01/29 12:10:36;;;;;;;5.82;1.63;;;14.70;1.00;;;;;;5031084;28;20461;-41
2023/01/29 12:13:26;;;;;;;5.63;1.33;;;14.70;1.00;;;;;;5028154;28;20041;-41
2023/01/29 12:16:44;;;;;;;4.40;1.63;;;14.70;1.00;;;;;;5034747;28;20496;-40
2023/01/29 12:19:14;;;;;;;2.83;1.40;;;14.70;1.00;;;;;;5009280;28;20568;-41
2023/01/29 12:21:44;;;;;;;2.92;1.42;;;14.70;1.00;;;;;;5032760;28;20117;-40
2023/01/29 12:24:35;;;;;;;2.55;1.33;;;14.60;1.00;;;;;;5031094;28;20454;-39
2023/01/29 12:27:19;;;;;;;5.07;1.65;;;14.70;1.00;;;;;;5032463;28;20041;-39
2023/01/29 12:30:05;;;;;;;4.40;1.20;;;14.70;1.00;;;;;;5033486;28;20055;-40
2023/01/29 12:32:54;;;;;;;6.43;1.05;;;14.60;1.00;;;;;;5031723;28;20050;-40
2023/01/29 12:35:25;;;;;;;3.42;0.95;;;14.60;1.00;;;;;;5034617;28;20104;-40
2023/01/29 12:38:01;;;;;;;3.40;1.13;;;14.60;1.00;;;;;;5034377;28;20042;-41
2023/01/29 12:40:39;;;;;;;3.42;1.02;;;14.60;1.00;;;;;;5040221;28;20037;-40
2023/01/29 12:43:17;;;;;;;6.25;1.73;;;14.70;1.00;;;;;;5054066;28;20037;-41
2023/01/29 12:45:51;;;;;;;2.25;0.98;;;14.60;1.00;;;;;;5054242;28;20053;-40
2023/01/29 12:48:26;;;;;;;;;;;14.60;1.00;;;;;;5054531;28;20044;-40
2023/01/29 12:50:58;;;;;;;5.38;1.63;;;14.60;1.00;;;;;;5053367;28;19948;-39
2023/01/29 12:53:56;;;;;;;2.33;0.88;;;14.60;1.00;;;;;;5030175;28;20382;-39
2023/01/29 12:56:35;;;;;;;3.20;1.10;;;14.60;1.00;;;;;;5016480;28;20045;-39
2023/01/29 12:59:15;;;;;;;4.88;1.17;;;14.60;1.00;;;;;;5042083;28;20428;-39
2023/01/29 13:01:55;;;;;;;4.53;1.20;;;14.60;1.00;;;;;;5035401;28;20034;-39
2023/01/29 13:04:36;;;;;;;3.55;0.98;;;14.60;1.00;;;;;;5025168;28;20463;-40
2023/01/29 13:07:18;;;;;;;5.45;1.42;;;14.60;1.00;;;;;;5032226;28;20087;-39
2023/01/29 13:09:49;;;;;;;3.95;1.63;;;14.60;1.00;;;;;;5033023;28;20053;-39
2023/01/29 13:12:19;;;;;;;6.45;1.40;;;14.60;1.00;;;;;;5037327;28;20034;-39
2023/01/29 13:15:01;;;;;;;6.93;1.58;;;14.60;1.00;;;;;;5025512;28;20052;-39
2023/01/29 13:17:36;;;;;;;5.90;1.40;;;14.60;1.00;;;;;;5013535;28;20409;-40
2023/01/29 13:20:21;;;;;;;2.45;1.10;;;14.60;1.00;;;;;;5030268;28;20045;-40
2023/01/29 13:22:51;;;;;;;6.10;1.20;;;14.60;1.00;;;;;;5052704;28;20098;-39
2023/01/29 13:25:19;;;;;;;5.18;1.50;;;14.60;1.00;;;;;;5033581;28;20459;-39
2023/01/29 13:27:47;;;;;;;4.95;1.05;;;14.60;1.00;;;;;;5034722;28;20049;-39
2023/01/29 13:30:31;;;;;;;3.85;1.42;;;14.60;1.00;;;;;;5052627;28;20053;-39
2023/01/29 13:33:09;;;;;;;2.17;1.10;;;14.60;1.00;;;;;;5032947;28;20045;-39
2023/01/29 13:35:43;;;;;;;3.10;1.40;;;14.60;1.00;;;;;;5033369;28;20092;-39
2023/01/29 13:38:32;;;;;;;2.53;1.23;;;14.60;1.00;;;;;;5033167;28;20045;-40
2023/01/29 13:41:05;;;;;;;3.72;1.50;;;14.60;1.00;;;;;;5033151;28;20278;-40
2023/01/29 13:43:36;;;;;;;3.17;1.02;;;14.60;1.00;;;;;;5032818;28;20046;-39
2023/01/29 13:46:13;;;;;;;4.72;1.38;;;14.60;1.00;;;;;;5026481;28;20419;-40
2023/01/29 13:48:42;;;;;;;3.58;1.25;;;14.60;1.00;;;;;;5052817;28;20052;-39
2023/01/29 13:51:18;;;;;;;4.07;1.48;;;14.60;1.00;;;;;;5052904;28;20052;-39
2023/01/29 13:53:55;;;;;;;2.67;1.10;;;14.60;1.00;;;;;;5052593;28;20041;-40